• Join FlightAware (Why Join?)
  • Login
  • US Flag 
05:19AM EDT


 

Airport Tracker/Info


-or-


 

Live Flight TrackerFlight Track Log ✈ N724AE ✈ 05-Apr-2013 ✈ KLFT - KDFW

Flight Track Log - Related Links

Times and Time Zones

All times are in EDT time to prevent confusion due to time zone crossing. See the N724AE flight status page for this flight to view local times or setup timezone preferences in your user account.

Time Position Orientation Groundspeed Altitude Reporting Facility
EDT Latitude Longitude Course Direction KTS MPH feet Rate Location/Type
07:03PM 30.2658 -91.9833 340° North 200 230 32,000  Level Houston Center
07:04PM 30.3496 -92.0498 337° Northwest  Level FlightAware Approximate
07:04PM 30.3142 -92.0117 333° Northwest 223 257 6,600  Level Houston Center
07:05PM 30.4253 -92.0801 341° North  Level FlightAware Approximate
07:05PM 30.3731 -92.0408 337° Northwest 227 261 9,300  Level Houston Center
07:06PM 30.4926 -92.1278 340° North  Level FlightAware Approximate
07:06PM 30.4486 -92.1025 325° Northwest 284 327 11,400  Level Houston Center
07:07PM 30.5678 -92.1600 340° North  Level FlightAware Approximate
07:07PM 30.5086 -92.1825 311° West 324 373 13,100  Level Houston Center
07:08PM 30.6430 -92.1922 340° North  Level FlightAware Approximate
07:08PM 30.5731 -92.2658 312° West 342 394 14,700  Level Houston Center
07:09PM 30.6386 -92.3514 312° West 353 406 16,300 1,500 Climbing Houston Center
07:10PM 30.7058 -92.4378 312° West 358 412 17,800 1,320 Climbing Houston Center
07:11PM 30.7739 -92.5267 312° West 365 420 19,100 1,500 Climbing Houston Center
07:13PM 30.8575 -92.6358 312° West 373 429 21,000 1,620 Climbing Houston Center
07:14PM 30.9286 -92.7283 312° West 378 435 22,500 1,500 Climbing Houston Center
07:15PM 30.9997 -92.8225 311° West 382 440 24,100 1,500 Climbing Houston Center
07:16PM 31.0714 -92.9142 312° West 381 438 25,600 1,440 Climbing Houston Center
07:17PM 31.1411 -93.0064 311° West 380 437 27,100 1,440 Climbing Houston Center
07:18PM 31.2094 -93.0983 311° West 378 435 28,600 1,560 Climbing Houston Center
07:19PM 31.2903 -93.2053 312° West 371 427 30,400 1,560 Climbing Houston Center
07:20PM 31.3289 -93.3200 292° West 369 425 31,900 720 Climbing Houston Center
07:21PM 31.3647 -93.4369 290° West 378 435 32,000  Climbing Houston Center
07:22PM 31.4014 -93.5558 290° West 386 444 32,000  Level Houston Center
07:23PM 31.4375 -93.6694 290° West 388 447 32,000  Level Houston Center
07:24PM 31.4814 -93.8136 290° West 390 449 32,000  Level Houston Center
07:25PM 31.5114 -93.9142 289° West 389 448 32,000  Level Fort Worth Center
07:26PM 31.5481 -94.0347 290° West 389 448 32,000  Level Fort Worth Center
07:27PM 31.5847 -94.1553 290° West 389 448 32,000  Level Fort Worth Center
07:28PM 31.6211 -94.2783 289° West 389 448 32,000  Level Fort Worth Center
07:29PM 31.6575 -94.3969 290° West 394 453 32,000  Level Fort Worth Center
07:30PM 31.6936 -94.5178 289° West 394 453 32,000  Level Fort Worth Center
07:31PM 31.7275 -94.6314 289° West 402 463 32,000  Level Fort Worth Center
07:32PM 31.7636 -94.7525 289° West 402 463 32,000  Level Fort Worth Center
07:33PM 31.8017 -94.8736 290° West 402 463 32,000  Level Fort Worth Center
07:34PM 31.8456 -94.9897 294° West 402 463 32,000  Level Fort Worth Center
07:35PM 31.8917 -95.1133 294° West 402 463 32,000  Level Fort Worth Center
07:36PM 31.9356 -95.2322 294° West 402 463 32,000  Level Fort Worth Center
07:37PM 31.9794 -95.3511 294° West 402 463 32,000  Level Fort Worth Center
07:38PM 32.0250 -95.4678 295° West 397 457 32,000  Level Fort Worth Center
07:39PM 32.0708 -95.5869 294° West 391 450 32,000 -60 Level Fort Worth Center
07:40PM 32.1142 -95.7161 292° West 391 450 31,900 -1,200 Descending Fort Worth Center
07:41PM 32.1597 -95.8378 294° West 396 456 29,600 -2,700 Descending Fort Worth Center
07:42PM 32.2050 -95.9622 293° West 401 461 26,500 -3,180 Descending Fort Worth Center
07:43PM 32.2481 -96.0844 293° West 401 461 23,300 -3,060 Descending Fort Worth Center
07:44PM 32.2867 -96.1872 294° West 396 456 20,400 -3,060 Descending Fort Worth Center
07:45PM 32.3317 -96.3119 293° West 379 436 17,200 -2,880 Descending Fort Worth Center
07:46PM 32.3681 -96.4147 293° West 374 430 14,700 -2,580 Descending Fort Worth Center
07:47PM 32.4378 -96.5200 308° West 369 425 12,100 -1,860 Descending Fort Worth Center
07:48PM 32.5031 -96.5956 316° Northwest 362 417 11,000 -600 Descending Fort Worth Center
07:49PM 32.5828 -96.6886 315° West 362 417 11,000  Level Fort Worth Center
07:50PM 32.6544 -96.7744 315° West 362 417 11,000  Level Fort Worth Center
07:50PM 32.7000 -96.8333 313° West 339 390 11,000  Level Dallas / Fort Worth TRACON
07:51PM 32.7667 -96.9000 320° Northwest 297 342 11,000 -300 Level Dallas / Fort Worth TRACON
07:53PM 32.8667 -97.0667 306° West 312 359 10,100 -660 Descending Dallas / Fort Worth TRACON
07:54PM 32.9000 -97.1333 301° West 292 336 9,100 -900 Descending Dallas / Fort Worth TRACON
07:55PM 32.9125 -97.1511 310° West 288 331 9,000 -1,260 Descending Fort Worth Center
07:56PM 32.9772 -97.1708 346° North 232 267 7,500 -1,440 Descending Fort Worth Center
07:57PM 33.0419 -97.1756 357° North 232 267 6,100 -1,500 Descending Fort Worth Center
07:58PM 33.0961 -97.1431 27° Northeast 205 236 4,500 -1,500 Descending Fort Worth Center
07:59PM 33.0833 -97.1000 109° East 226 260 3,500 -1,380 Descending Dallas / Fort Worth TRACON